Time;durP1;ratioP1;P1;durP2;ratioP2;P2;SDS_P1;SDS_P2;PMS_P1;PMS_P2;Temp;Humidity;BMP_temperature;BMP_pressure;BME280_temperature;BME280_humidity;BME280_pressure;Samples;Min_cycle;Max_cycle;Signal;HPM_P1;HPM_P2
2022/03/04 00:01:27;;;;;;;;;;;;;;;11.03;27.98;98901.28;4499512;31;34405;-83
2022/03/04 00:03:55;;;;;;;;;;;;;;;11.06;27.96;98904.75;4487394;31;33260;-81
2022/03/04 00:06:22;;;;;;;;;;;;;;;11.25;27.86;98900.56;4482876;32;33864;-81
2022/03/04 00:08:50;;;;;;;;;;;;;;;10.76;27.34;98909.72;4483290;32;34517;-81
2022/03/04 00:11:17;;;;;;;;;;;;;;;10.04;26.54;98917.66;4495978;31;34030;-80
2022/03/04 00:13:45;;;;;;;;;;;;;;;9.58;27.13;98922.28;4499683;31;32644;-82
2022/03/04 00:16:13;;;;;;;;;;;;;;;9.73;27.10;98921.59;4498713;31;34762;-82
2022/03/04 00:18:40;;;;;;;;;;;;;;;9.13;28.26;98913.06;4500204;31;34339;-82
2022/03/04 00:21:08;;;;;;;;;;;;;;;9.59;28.15;98924.03;4499199;31;34198;-82
2022/03/04 00:23:36;;;;;;;;;;;;;;;9.83;27.71;98922.59;4500067;31;34177;-81
2022/03/04 00:26:03;;;;;;;;;;;;;;;9.97;27.55;98924.50;4498658;31;34691;-81
2022/03/04 00:28:31;;;;;;;;;;;;;;;9.34;29.14;98912.50;4499862;31;34194;-82
2022/03/04 00:30:58;;;;;;;;;;;;;;;9.85;29.02;98920.88;4499868;31;33851;-84
2022/03/04 00:33:26;;;;;;;;;;;;;;;10.10;28.91;98911.66;4499982;31;34181;-82
2022/03/04 00:35:54;;;;;;;;;;;;;;;10.31;28.40;98909.34;4499668;31;35106;-81
2022/03/04 00:38:21;;;;;;;;;;;;;;;10.08;27.96;98909.06;4499918;31;34382;-82
2022/03/04 00:40:48;;;;;;;;;;;;;;;10.70;27.69;98901.03;4499362;31;34414;-81
2022/03/04 00:43:17;;;;;;;;;;;;;;;10.99;27.96;98908.16;4499652;31;33589;-82
2022/03/04 00:45:44;;;;;;;;;;;;;;;11.37;27.26;98902.34;4499714;31;35044;-82
2022/03/04 00:48:12;;;;;;;;;;;;;;;11.26;27.15;98901.44;4497581;31;34489;-81
2022/03/04 00:50:39;;;;;;;;;;;;;;;11.52;27.17;98899.84;4499010;31;34242;-86
2022/03/04 00:53:06;;;;;;;;;;;;;;;11.60;27.07;98899.88;4499851;31;33396;-81
2022/03/04 00:55:37;;;;;;;;;;;;;;;11.76;26.92;98893.84;4499799;31;35134;-82
2022/03/04 00:58:06;;;;;;;;;;;;;;;11.19;28.11;98901.38;4497830;31;35517;-81
2022/03/04 01:00:34;;;;;;;;;;;;;;;11.37;28.05;98899.75;4499489;31;35084;-85
2022/03/04 01:03:02;;;;;;;;;;;;;;;11.61;27.45;98897.25;4499638;31;34190;-83
2022/03/04 01:05:30;;;;;;;;;;;;;;;11.54;27.29;98898.09;4499332;31;33772;-82
2022/03/04 01:07:57;;;;;;;;;;;;;;;11.74;26.74;98899.91;4498008;31;34220;-85
2022/03/04 01:10:24;;;;;;;;;;;;;;;11.98;26.70;98889.63;4499840;31;33877;-84
2022/03/04 01:12:51;;;;;;;;;;;;;;;11.79;26.90;98895.59;4499693;31;33309;-82
2022/03/04 01:15:19;;;;;;;;;;;;;;;11.96;26.36;98888.75;4499254;31;32979;-82
2022/03/04 01:17:47;;;;;;;;;;;;;;;12.03;26.99;98893.09;4499494;31;34203;-82
2022/03/04 01:20:14;;;;;;;;;;;;;;;11.90;27.07;98886.16;4498947;31;34191;-82
2022/03/04 01:22:41;;;;;;;;;;;;;;;11.88;26.89;98899.12;4499448;31;33305;-88
2022/03/04 01:25:09;;;;;;;;;;;;;;;12.00;26.79;98889.63;4499187;31;33723;-84
2022/03/04 01:27:36;;;;;;;;;;;;;;;11.77;26.84;98886.94;4498154;31;34530;-82
2022/03/04 01:30:05;;;;;;;;;;;;;;;11.79;26.99;98887.81;4499336;31;35084;-82
2022/03/04 01:32:32;;;;;;;;;;;;;;;12.03;27.15;98884.44;4499216;31;33287;-82
2022/03/04 01:34:59;;;;;;;;;;;;;;;12.14;26.97;98878.41;4499008;31;34163;-83
2022/03/04 01:37:27;;;;;;;;;;;;;;;12.29;26.63;98884.50;4499121;31;34099;-83
2022/03/04 01:39:54;;;;;;;;;;;;;;;12.06;26.74;98887.91;4499306;31;34267;-81
2022/03/04 01:42:21;;;;;;;;;;;;;;;11.99;27.06;98870.56;4499294;31;33544;-81
2022/03/04 01:44:48;;;;;;;;;;;;;;;12.09;27.10;98876.69;4499605;31;33957;-81
2022/03/04 01:47:15;;;;;;;;;;;;;;;11.75;27.94;98881.75;4498787;31;34544;-82
2022/03/04 01:49:44;;;;;;;;;;;;;;;11.51;28.58;98879.03;4499172;31;34914;-81
2022/03/04 01:52:11;;;;;;;;;;;;;;;11.91;28.25;98872.28;4496709;31;33840;-81
2022/03/04 01:54:38;;;;;;;;;;;;;;;11.54;28.78;98876.47;4499326;31;33971;-81
2022/03/04 01:57:06;;;;;;;;;;;;;;;10.85;29.25;98879.53;4499114;31;33591;-81
2022/03/04 01:59:33;;;;;;;;;;;;;;;9.33;31.76;98889.19;4497550;31;34226;-82
2022/03/04 02:02:00;;;;;;;;;;;;;;;9.55;32.00;98895.53;4499190;31;33111;-81
2022/03/04 02:04:28;;;;;;;;;;;;;;;7.65;35.99;98900.12;4498874;31;34000;-81
2022/03/04 02:06:55;;;;;;;;;;;;;;;8.00;35.47;98893.09;4499156;31;34887;-81
2022/03/04 02:09:22;;;;;;;;;;;;;;;7.62;36.48;98908.69;4498121;31;34339;-81
2022/03/04 02:11:50;;;;;;;;;;;;;;;8.18;35.48;98900.28;4499048;31;33985;-81
2022/03/04 02:14:17;;;;;;;;;;;;;;;7.59;36.95;98908.63;4497735;31;34101;-81
2022/03/04 02:16:45;;;;;;;;;;;;;;;7.74;36.70;98901.19;4498723;31;33852;-82
2022/03/04 02:19:13;;;;;;;;;;;;;;;7.28;38.98;98908.00;4499211;31;33913;-86
2022/03/04 02:21:50;;;;;;;;;;;;;;;7.22;39.54;98906.97;4499342;31;34274;-83
2022/03/04 02:24:18;;;;;;;;;;;;;;;7.06;40.57;98908.34;4490076;31;33966;-82
2022/03/04 02:26:45;;;;;;;;;;;;;;;6.79;42.15;98912.03;4499164;31;34218;-83
2022/03/04 02:29:13;;;;;;;;;;;;;;;6.82;43.43;98906.09;4499135;31;34466;-87
2022/03/04 02:31:41;;;;;;;;;;;;;;;6.98;43.62;98902.16;4498817;31;34618;-82
2022/03/04 02:34:08;;;;;;;;;;;;;;;7.37;42.81;98907.31;4498837;31;33833;-82
2022/03/04 02:36:35;;;;;;;;;;;;;;;7.63;42.30;98910.44;4497806;31;34003;-82
2022/03/04 02:39:02;;;;;;;;;;;;;;;7.99;41.52;98909.38;4497677;31;33908;-83
2022/03/04 02:41:30;;;;;;;;;;;;;;;8.71;39.90;98906.41;4499300;31;33284;-81
2022/03/04 02:43:57;;;;;;;;;;;;;;;8.02;41.49;98914.62;4498480;31;34256;-81
2022/03/04 02:46:24;;;;;;;;;;;;;;;7.74;42.13;98924.41;4498590;31;34367;-85
2022/03/04 02:48:52;;;;;;;;;;;;;;;6.96;44.03;98924.44;4498864;31;34121;-82
2022/03/04 02:51:19;;;;;;;;;;;;;;;6.90;43.54;98920.03;4499379;31;33661;-85
2022/03/04 02:53:46;;;;;;;;;;;;;;;7.07;43.44;98926.41;4497948;31;34156;-81
2022/03/04 02:56:13;;;;;;;;;;;;;;;7.22;42.95;98919.88;4497635;31;35727;-82
2022/03/04 02:58:41;;;;;;;;;;;;;;;7.45;42.20;98920.34;4498892;31;34081;-81
2022/03/04 03:01:08;;;;;;;;;;;;;;;7.79;41.34;98920.19;4498478;31;33286;-83
2022/03/04 03:03:35;;;;;;;;;;;;;;;8.22;40.28;98912.41;4498390;31;34313;-81
2022/03/04 03:06:03;;;;;;;;;;;;;;;7.34;41.51;98922.69;4499073;31;34626;-81
2022/03/04 03:08:31;;;;;;;;;;;;;;;7.17;42.15;98932.66;4497281;31;34124;-82
2022/03/04 03:11:01;;;;;;;;;;;;;;;7.54;41.77;98929.19;4497783;31;32637;-81
2022/03/04 03:13:28;;;;;;;;;;;;;;;7.51;41.55;98933.41;4498319;31;35058;-81
2022/03/04 03:15:56;;;;;;;;;;;;;;;8.40;39.88;98930.84;4498504;31;35389;-82
2022/03/04 03:18:24;;;;;;;;;;;;;;;8.98;38.55;98923.19;4498681;31;35035;-86
2022/03/04 03:20:54;;;;;;;;;;;;;;;8.63;39.10;98926.06;4498680;31;33720;-86
2022/03/04 03:23:21;;;;;;;;;;;;;;;8.59;39.19;98921.69;4491200;31;34031;-81
2022/03/04 03:25:48;;;;;;;;;;;;;;;9.40;37.54;98927.25;4498444;31;34214;-82
2022/03/04 03:28:15;;;;;;;;;;;;;;;8.57;38.73;98933.72;4498527;31;34303;-81
2022/03/04 03:30:43;;;;;;;;;;;;;;;9.25;37.89;98933.94;4498303;31;34234;-81
2022/03/04 03:33:10;;;;;;;;;;;;;;;8.85;38.95;98929.00;4497978;31;34837;-81
2022/03/04 03:35:37;;;;;;;;;;;;;;;8.64;38.95;98932.13;4498300;31;35180;-81
2022/03/04 03:38:05;;;;;;;;;;;;;;;9.13;37.91;98933.75;4498037;31;34140;-82
2022/03/04 03:40:32;;;;;;;;;;;;;;;9.46;36.90;98942.81;4481227;32;33336;-81
2022/03/04 03:42:59;;;;;;;;;;;;;;;9.56;37.04;98944.69;4482949;31;33825;-89
2022/03/04 03:45:26;;;;;;;;;;;;;;;9.93;36.46;98937.41;4497875;31;33996;-82
2022/03/04 03:47:54;;;;;;;;;;;;;;;10.63;34.98;98935.53;4497949;31;34975;-82
2022/03/04 03:50:21;;;;;;;;;;;;;;;10.65;34.81;98922.59;4497878;31;33947;-82
2022/03/04 03:52:48;;;;;;;;;;;;;;;11.07;34.07;98934.16;4483662;31;33937;-82
2022/03/04 03:55:15;;;;;;;;;;;;;;;11.29;33.43;98928.25;4497575;31;34315;-81
2022/03/04 03:57:42;;;;;;;;;;;;;;;11.30;33.27;98923.94;4497929;31;34368;-82
2022/03/04 04:00:10;;;;;;;;;;;;;;;11.43;33.12;98926.59;4497572;31;32957;-81
2022/03/04 04:02:38;;;;;;;;;;;;;;;11.08;33.85;98928.97;4497798;31;34223;-82
2022/03/04 04:05:09;;;;;;;;;;;;;;;11.32;33.50;98923.06;4498193;31;34630;-81
2022/03/04 04:07:37;;;;;;;;;;;;;;;11.53;33.28;98932.72;4497547;31;34407;-80
2022/03/04 04:10:04;;;;;;;;;;;;;;;11.42;33.68;98931.78;4497595;31;33224;-82
2022/03/04 04:12:32;;;;;;;;;;;;;;;10.96;34.45;98928.91;4497834;31;33514;-82
2022/03/04 04:14:59;;;;;;;;;;;;;;;10.94;34.47;98928.00;4497705;31;33951;-82
2022/03/04 04:17:26;;;;;;;;;;;;;;;9.65;36.35;98934.44;4497315;31;33721;-82
2022/03/04 04:19:53;;;;;;;;;;;;;;;10.50;35.51;98927.66;4497516;31;32620;-82
2022/03/04 04:22:21;;;;;;;;;;;;;;;10.23;35.71;98937.72;4498409;31;34211;-82
2022/03/04 04:24:48;;;;;;;;;;;;;;;10.65;35.17;98938.16;4498737;31;35074;-82
2022/03/04 04:27:15;;;;;;;;;;;;;;;10.71;34.87;98935.59;4499433;31;34334;-80
2022/03/04 04:29:43;;;;;;;;;;;;;;;11.08;34.01;98936.75;4499916;31;34142;-84
2022/03/04 04:32:10;;;;;;;;;;;;;;;9.88;36.05;98944.22;4499611;31;34933;-81
2022/03/04 04:34:37;;;;;;;;;;;;;;;10.45;35.19;98937.94;4499807;31;34122;-82
2022/03/04 04:37:04;;;;;;;;;;;;;;;10.64;35.12;98936.41;4498460;31;34790;-82
2022/03/04 04:39:31;;;;;;;;;;;;;;;10.54;35.09;98940.66;4499915;31;32190;-82
2022/03/04 04:41:59;;;;;;;;;;;;;;;10.14;35.54;98947.97;4499417;31;34905;-81
2022/03/04 04:44:45;;;;;;;;;;;;;;;10.24;35.13;98942.06;4499368;31;35880;-82
2022/03/04 04:47:13;;;;;;;;;;;;;;;10.24;35.00;98959.31;4499459;31;34607;-82
2022/03/04 04:49:40;;;;;;;;;;;;;;;10.21;35.10;98957.56;4500036;31;33013;-81
2022/03/04 04:52:07;;;;;;;;;;;;;;;10.38;34.78;98954.28;4500012;31;33815;-83
2022/03/04 04:54:35;;;;;;;;;;;;;;;10.61;34.33;98958.00;4499246;31;35109;-82
2022/03/04 04:57:02;;;;;;;;;;;;;;;10.64;34.27;98960.59;4499514;31;34724;-82
2022/03/04 04:59:30;;;;;;;;;;;;;;;11.13;33.32;98965.31;4482852;31;32540;-82
2022/03/04 05:01:57;;;;;;;;;;;;;;;11.15;33.12;98972.28;4494459;31;34914;-82
2022/03/04 05:04:25;;;;;;;;;;;;;;;10.96;33.36;98978.19;4499402;31;34334;-82
2022/03/04 05:06:52;;;;;;;;;;;;;;;10.92;33.50;98979.00;4500039;31;34113;-83
2022/03/04 05:09:21;;;;;;;;;;;;;;;11.13;33.11;98983.47;4485332;31;32999;-82
2022/03/04 05:11:48;;;;;;;;;;;;;;;11.52;32.40;98982.91;4499178;31;34118;-82
2022/03/04 05:14:15;;;;;;;;;;;;;;;11.46;32.28;98982.84;4499195;31;34017;-82
2022/03/04 05:16:42;;;;;;;;;;;;;;;11.13;32.52;98984.34;4498874;31;34851;-82
2022/03/04 05:19:10;;;;;;;;;;;;;;;10.96;33.06;98991.16;4499749;31;33554;-82
2022/03/04 05:21:37;;;;;;;;;;;;;;;11.29;32.65;98990.53;4498316;31;34084;-81
2022/03/04 05:24:06;;;;;;;;;;;;;;;11.66;32.39;98988.16;4484556;31;34404;-81
2022/03/04 05:26:37;;;;;;;;;;;;;;;11.47;32.62;98994.09;4499621;31;33925;-81
2022/03/04 05:29:05;;;;;;;;;;;;;;;11.54;32.78;98998.47;4498541;31;33324;-81
2022/03/04 05:31:33;;;;;;;;;;;;;;;11.56;32.67;99002.84;4483831;31;34129;-81
2022/03/04 05:34:00;;;;;;;;;;;;;;;11.45;32.85;99007.09;4497828;31;35249;-81
2022/03/04 05:36:27;;;;;;;;;;;;;;;11.68;32.60;98999.44;4484994;31;34148;-83
2022/03/04 05:38:55;;;;;;;;;;;;;;;11.72;32.70;99008.13;4484093;31;33237;-81
2022/03/04 05:41:22;;;;;;;;;;;;;;;11.57;33.07;99012.34;4486364;31;33747;-81
2022/03/04 05:43:49;;;;;;;;;;;;;;;11.76;32.79;99022.84;4499053;31;34295;-81
2022/03/04 05:46:17;;;;;;;;;;;;;;;11.69;32.83;99017.59;4483500;31;34060;-83
2022/03/04 05:48:44;;;;;;;;;;;;;;;11.92;32.33;99014.31;4499518;31;32980;-82
2022/03/04 05:51:12;;;;;;;;;;;;;;;11.92;32.39;99029.88;4498114;31;33921;-82
2022/03/04 05:53:39;;;;;;;;;;;;;;;11.90;32.42;99031.63;4483634;31;33537;-82
2022/03/04 05:56:07;;;;;;;;;;;;;;;11.96;32.54;99030.78;4483480;31;33882;-82
2022/03/04 05:58:34;;;;;;;;;;;;;;;11.99;32.50;99034.25;4498909;31;33479;-81
2022/03/04 06:01:03;;;;;;;;;;;;;;;11.32;33.40;99032.06;4484802;31;34251;-82
2022/03/04 06:03:31;;;;;;;;;;;;;;;11.73;32.85;99039.28;4499295;31;34320;-82
2022/03/04 06:05:58;;;;;;;;;;;;;;;11.30;33.77;99036.41;4499065;31;34200;-81
2022/03/04 06:08:25;;;;;;;;;;;;;;;10.81;34.55;99038.56;4498815;31;33390;-81
2022/03/04 06:10:53;;;;;;;;;;;;;;;11.34;33.68;99039.88;4498181;31;34181;-82
2022/03/04 06:13:20;;;;;;;;;;;;;;;10.67;34.96;99043.59;4497581;31;34284;-82
2022/03/04 06:15:47;;;;;;;;;;;;;;;11.34;33.54;99040.75;4499099;31;34781;-83
2022/03/04 06:18:15;;;;;;;;;;;;;;;11.82;33.05;99051.44;4498896;31;34275;-82
2022/03/04 06:20:42;;;;;;;;;;;;;;;11.99;32.98;99048.97;4499234;31;34270;-82
2022/03/04 06:23:09;;;;;;;;;;;;;;;11.76;33.25;99054.88;4499041;31;34067;-82
2022/03/04 06:25:37;;;;;;;;;;;;;;;11.80;33.24;99060.97;4499005;31;34131;-82
2022/03/04 06:28:04;;;;;;;;;;;;;;;12.05;32.90;99062.87;4499495;31;33487;-83
2022/03/04 06:30:32;;;;;;;;;;;;;;;12.28;32.41;99062.13;4499026;31;34404;-83
2022/03/04 06:33:47;;;;;;;;;;;;;;;12.38;32.22;99071.69;4499611;31;34491;-82
2022/03/04 06:35:47;;;;;;;;;;;;;;;12.40;32.13;99067.38;4493204;31;33898;-82
2022/03/04 06:38:15;;;;;;;;;;;;;;;12.28;32.39;99072.53;4499305;31;34451;-82
2022/03/04 06:40:43;;;;;;;;;;;;;;;12.09;32.49;99069.84;4499587;31;34169;-86
2022/03/04 06:43:10;;;;;;;;;;;;;;;12.22;32.26;99077.69;4498973;31;34035;-83
2022/03/04 06:45:40;;;;;;;;;;;;;;;12.03;32.63;99079.31;4497620;31;35057;-82
2022/03/04 06:48:07;;;;;;;;;;;;;;;12.48;32.28;99080.38;4498667;31;33373;-82
2022/03/04 06:50:34;;;;;;;;;;;;;;;11.99;32.84;99083.62;4498598;31;34967;-83
2022/03/04 06:53:02;;;;;;;;;;;;;;;12.14;32.79;99078.50;4498768;31;35124;-83
2022/03/04 06:55:30;;;;;;;;;;;;;;;12.29;32.26;99082.91;4497775;31;34199;-82
2022/03/04 06:57:57;;;;;;;;;;;;;;;11.73;32.70;99078.22;4498820;31;32997;-83
2022/03/04 07:00:25;;;;;;;;;;;;;;;12.28;32.01;99080.31;4497472;31;34928;-82
2022/03/04 07:02:52;;;;;;;;;;;;;;;11.79;32.50;99080.00;4498793;31;35150;-87
2022/03/04 07:05:22;;;;;;;;;;;;;;;12.20;32.03;99087.19;4497421;31;33957;-82
2022/03/04 07:07:50;;;;;;;;;;;;;;;12.00;32.08;99087.94;4497512;31;33371;-82
2022/03/04 07:10:17;;;;;;;;;;;;;;;11.96;32.54;99090.53;4498841;31;33726;-83
2022/03/04 07:12:45;;;;;;;;;;;;;;;12.36;31.50;99096.81;4497356;31;34491;-82
2022/03/04 07:15:13;;;;;;;;;;;;;;;12.09;31.92;99095.81;4498829;31;34105;-82
2022/03/04 07:17:44;;;;;;;;;;;;;;;10.68;34.47;99105.00;4498808;31;33537;-83
2022/03/04 07:20:12;;;;;;;;;;;;;;;11.63;33.08;99099.78;4498826;31;34533;-83
2022/03/04 07:22:39;;;;;;;;;;;;;;;11.13;33.73;99106.28;4498534;31;35128;-83
2022/03/04 07:25:08;;;;;;;;;;;;;;;11.07;33.85;99110.56;4497506;31;35023;-82
2022/03/04 07:27:35;;;;;;;;;;;;;;;10.60;35.18;99113.50;4497615;31;34041;-82
2022/03/04 07:30:04;;;;;;;;;;;;;;;10.74;34.73;99113.69;4498611;31;34303;-83
2022/03/04 07:32:32;;;;;;;;;;;;;;;11.43;33.81;99110.88;4498505;31;34279;-84
2022/03/04 07:34:59;;;;;;;;;;;;;;;10.99;34.12;99115.69;4498894;31;33695;-82
2022/03/04 07:37:27;;;;;;;;;;;;;;;10.96;34.39;99119.13;4498401;31;33065;-82
2022/03/04 07:39:54;;;;;;;;;;;;;;;11.07;34.24;99124.41;4498352;31;33757;-83
2022/03/04 07:42:22;;;;;;;;;;;;;;;10.99;34.32;99126.06;4498489;31;34095;-83
2022/03/04 07:44:50;;;;;;;;;;;;;;;9.95;36.03;99128.19;4498404;31;34340;-82
2022/03/04 07:47:17;;;;;;;;;;;;;;;9.13;37.34;99130.31;4498198;31;33169;-82
2022/03/04 07:49:44;;;;;;;;;;;;;;;9.17;37.97;99137.28;4498066;31;34146;-82
2022/03/04 07:52:12;;;;;;;;;;;;;;;9.65;36.96;99135.47;4498130;31;34407;-83
2022/03/04 07:54:39;;;;;;;;;;;;;;;8.20;39.93;99137.06;4498018;31;34784;-82
2022/03/04 07:57:06;;;;;;;;;;;;;;;6.99;43.21;99156.47;4498355;31;33084;-82
2022/03/04 07:59:34;;;;;;;;;;;;;;;7.71;41.42;99146.25;4500364;31;34174;-82
2022/03/04 08:02:01;;;;;;;;;;;;;;;8.05;40.50;99152.22;4498665;31;34210;-82
2022/03/04 08:04:28;;;;;;;;;;;;;;;7.35;42.08;99168.56;4500380;31;34166;-82
2022/03/04 08:06:56;;;;;;;;;;;;;;;7.86;41.78;99165.53;4500147;31;34178;-82
2022/03/04 08:09:23;;;;;;;;;;;;;;;7.15;43.77;99173.22;4500077;31;34910;-83
2022/03/04 08:11:50;;;;;;;;;;;;;;;7.10;44.47;99164.50;4500280;31;34268;-82
2022/03/04 08:14:17;;;;;;;;;;;;;;;7.37;43.89;99169.50;4500192;31;34399;-82
2022/03/04 08:16:45;;;;;;;;;;;;;;;8.15;41.93;99169.66;4500319;31;33565;-83
2022/03/04 08:19:12;;;;;;;;;;;;;;;8.72;41.30;99178.66;4500079;31;33593;-82
2022/03/04 08:21:39;;;;;;;;;;;;;;;8.90;41.53;99171.25;4498851;31;34811;-83
2022/03/04 08:24:06;;;;;;;;;;;;;;;8.66;41.92;99174.22;4499987;31;34203;-85
2022/03/04 08:26:38;;;;;;;;;;;;;;;8.90;41.60;99173.84;4500147;31;33478;-82
2022/03/04 08:29:06;;;;;;;;;;;;;;;8.75;42.36;99173.53;4500039;31;34076;-83
2022/03/04 08:31:33;;;;;;;;;;;;;;;9.31;41.09;99173.72;4498620;31;34941;-82
2022/03/04 08:34:01;;;;;;;;;;;;;;;8.75;42.11;99179.59;4499757;31;33788;-82
2022/03/04 08:36:28;;;;;;;;;;;;;;;7.85;44.05;99182.72;4500342;31;33287;-83
2022/03/04 08:38:55;;;;;;;;;;;;;;;7.25;45.38;99190.69;4485395;31;34444;-82
2022/03/04 08:41:24;;;;;;;;;;;;;;;8.01;43.99;99189.12;4500133;31;35343;-83
2022/03/04 08:43:51;;;;;;;;;;;;;;;7.95;44.06;99189.84;4500121;31;34042;-83
2022/03/04 08:46:19;;;;;;;;;;;;;;;8.04;44.00;99196.94;4499845;31;33831;-82
2022/03/04 08:48:47;;;;;;;;;;;;;;;8.48;43.11;99186.75;4499884;31;33796;-83
2022/03/04 08:51:15;;;;;;;;;;;;;;;8.00;43.51;99189.97;4500383;31;34390;-82
2022/03/04 08:53:42;;;;;;;;;;;;;;;8.84;42.45;99188.38;4500021;31;34689;-82
2022/03/04 08:56:09;;;;;;;;;;;;;;;8.61;42.58;99191.34;4500047;31;33540;-82
2022/03/04 08:58:37;;;;;;;;;;;;;;;9.47;40.86;99191.28;4499948;31;34583;-82
2022/03/04 09:01:04;;;;;;;;;;;;;;;9.49;40.66;99189.59;4499570;31;34289;-82
2022/03/04 09:03:32;;;;;;;;;;;;;;;9.75;39.68;99190.03;4499540;31;35214;-82
2022/03/04 09:05:59;;;;;;;;;;;;;;;10.29;39.05;99184.81;4499850;31;33764;-82
2022/03/04 09:08:27;;;;;;;;;;;;;;;11.16;37.44;99186.78;4499022;31;33881;-82
2022/03/04 09:10:54;;;;;;;;;;;;;;;11.50;36.33;99197.50;4499493;31;34415;-83
2022/03/04 09:13:23;;;;;;;;;;;;;;;11.86;35.43;99180.53;4499965;31;33850;-83
2022/03/04 09:15:50;;;;;;;;;;;;;;;12.05;35.01;99184.16;4499450;31;33182;-83
2022/03/04 09:18:18;;;;;;;;;;;;;;;12.12;34.62;99180.69;4499517;31;33953;-83
2022/03/04 09:20:45;;;;;;;;;;;;;;;11.92;34.91;99184.03;4499705;31;34780;-82
2022/03/04 09:23:12;;;;;;;;;;;;;;;11.45;34.93;99186.22;4499538;31;34911;-82
2022/03/04 09:25:40;;;;;;;;;;;;;;;10.68;36.12;99187.97;4499680;31;32986;-83
2022/03/04 09:28:07;;;;;;;;;;;;;;;11.86;34.68;99186.59;4499458;31;34262;-82
2022/03/04 09:30:36;;;;;;;;;;;;;;;11.17;35.38;99191.13;4499369;31;35008;-83
2022/03/04 09:33:03;;;;;;;;;;;;;;;11.53;34.98;99194.06;4498137;31;33865;-83
2022/03/04 09:35:31;;;;;;;;;;;;;;;11.55;35.18;99197.53;4499867;31;33115;-83
2022/03/04 09:37:58;;;;;;;;;;;;;;;11.17;35.82;99201.50;4499422;31;33698;-82
2022/03/04 09:40:25;;;;;;;;;;;;;;;11.33;35.08;99199.06;4499696;31;33751;-82
2022/03/04 09:42:53;;;;;;;;;;;;;;;12.12;34.18;99196.28;4498527;31;34319;-83
2022/03/04 09:45:21;;;;;;;;;;;;;;;11.76;34.52;99196.88;4499101;31;34200;-82
2022/03/04 09:47:48;;;;;;;;;;;;;;;12.52;33.35;99194.81;4499372;31;34548;-83
2022/03/04 09:50:16;;;;;;;;;;;;;;;11.35;34.78;99197.34;4499599;31;35130;-87
2022/03/04 09:52:46;;;;;;;;;;;;;;;11.52;35.37;99210.50;4499620;31;34456;-82
2022/03/04 09:55:13;;;;;;;;;;;;;;;10.11;36.55;99209.56;4499744;31;34457;-85
2022/03/04 09:57:41;;;;;;;;;;;;;;;11.16;35.48;99212.72;4499557;31;34297;-83
2022/03/04 10:00:11;;;;;;;;;;;;;;;11.63;34.43;99196.75;4498030;31;34462;-83
2022/03/04 10:02:38;;;;;;;;;;;;;;;10.94;35.98;99201.22;4499417;31;33415;-84
2022/03/04 10:05:08;;;;;;;;;;;;;;;9.90;38.01;99201.47;4499617;31;33097;-82
2022/03/04 10:07:42;;;;;;;;;;;;;;;10.39;37.50;99194.47;4499374;31;34729;-83
2022/03/04 10:10:10;;;;;;;;;;;;;;;10.96;36.34;99204.72;4498002;31;34636;-83
2022/03/04 10:12:48;;;;;;;;;;;;;;;10.13;37.76;99205.28;4499137;31;34957;-82
2022/03/04 10:15:15;;;;;;;;;;;;;;;11.30;36.04;99199.03;4499332;31;33097;-83
2022/03/04 10:17:43;;;;;;;;;;;;;;;10.75;36.75;99193.19;4499508;31;34277;-83
2022/03/04 10:20:13;;;;;;;;;;;;;;;10.54;36.83;99196.41;4497491;31;34239;-82
2022/03/04 10:22:42;;;;;;;;;;;;;;;10.78;36.32;99203.63;4499373;31;35031;-82
2022/03/04 10:25:21;;;;;;;;;;;;;;;10.90;36.04;99201.16;4499101;31;34335;-83
2022/03/04 10:27:48;;;;;;;;;;;;;;;11.15;36.03;99195.41;4499211;31;34179;-86
2022/03/04 10:30:16;;;;;;;;;;;;;;;10.61;37.56;99191.31;4499235;31;34439;-82
2022/03/04 10:32:44;;;;;;;;;;;;;;;10.59;37.39;99184.38;4499221;31;33924;-83
2022/03/04 10:35:14;;;;;;;;;;;;;;;10.23;37.90;99195.94;4499187;31;33331;-83
2022/03/04 10:37:43;;;;;;;;;;;;;;;10.87;36.20;99189.06;4499289;31;34326;-86
2022/03/04 10:40:10;;;;;;;;;;;;;;;9.68;38.10;99197.66;4499120;31;33913;-83
2022/03/04 10:42:50;;;;;;;;;;;;;;;9.96;38.01;99189.50;4499043;31;35136;-85
2022/03/04 10:45:22;;;;;;;;;;;;;;;8.89;40.21;99197.06;4497372;31;33347;-82
2022/03/04 10:47:56;;;;;;;;;;;;;;;9.86;39.06;99189.34;4499006;31;34271;-83
2022/03/04 10:50:26;;;;;;;;;;;;;;;10.45;38.07;99184.16;4498998;31;34466;-82
2022/03/04 10:52:58;;;;;;;;;;;;;;;10.33;38.54;99186.59;4498920;31;35022;-83
2022/03/04 10:55:29;;;;;;;;;;;;;;;10.74;38.30;99187.16;4497668;31;33377;-83
2022/03/04 10:57:57;;;;;;;;;;;;;;;10.21;40.36;99182.09;4498930;31;34144;-83
2022/03/04 11:00:32;;;;;;;;;;;;;;;10.31;39.27;99184.00;4498932;31;35110;-83
2022/03/04 11:03:00;;;;;;;;;;;;;;;10.41;39.71;99185.84;4484342;31;34414;-82
2022/03/04 11:05:27;;;;;;;;;;;;;;;10.30;39.70;99189.16;4484552;31;34085;-83
2022/03/04 11:07:55;;;;;;;;;;;;;;;10.75;39.25;99186.28;4498688;31;34958;-83
2022/03/04 11:10:23;;;;;;;;;;;;;;;10.66;38.31;99186.19;4498726;31;33367;-83
2022/03/04 11:12:52;;;;;;;;;;;;;;;10.14;40.04;99188.03;4484766;31;34367;-83
2022/03/04 11:15:21;;;;;;;;;;;;;;;9.55;41.65;99185.37;4498638;31;33304;-83
2022/03/04 11:17:49;;;;;;;;;;;;;;;9.44;41.97;99187.78;4498619;31;35004;-83
2022/03/04 11:20:17;;;;;;;;;;;;;;;9.22;42.20;99189.09;4498731;31;33946;-82
2022/03/04 11:22:45;;;;;;;;;;;;;;;8.95;43.03;99192.03;4498526;31;34142;-82
2022/03/04 11:25:13;;;;;;;;;;;;;;;8.67;44.01;99195.75;4484271;31;34122;-83
2022/03/04 11:27:42;;;;;;;;;;;;;;;9.11;43.07;99190.59;4484281;31;33789;-85
2022/03/04 11:30:28;;;;;;;;;;;;;;;10.31;39.92;99178.81;4499022;31;34368;-82
2022/03/04 11:33:20;;;;;;;;;;;;;;;9.38;41.69;99187.66;4499699;31;34042;-82
2022/03/04 11:36:02;;;;;;;;;;;;;;;10.23;39.12;99181.28;4492282;31;33643;-83
2022/03/04 11:38:48;;;;;;;;;;;;;;;10.19;39.76;99184.66;4500394;31;34978;-82
2022/03/04 11:41:15;;;;;;;;;;;;;;;10.29;39.37;99182.22;4500473;31;34019;-87
2022/03/04 11:43:57;;;;;;;;;;;;;;;10.68;39.10;99182.78;4500239;31;33759;-82
2022/03/04 11:46:24;;;;;;;;;;;;;;;10.31;39.58;99181.41;4486020;31;34042;-83
2022/03/04 11:49:10;;;;;;;;;;;;;;;10.22;39.24;99182.09;4500261;31;33823;-82
2022/03/04 11:51:38;;;;;;;;;;;;;;;10.32;38.79;99179.69;4500055;31;34299;-83
2022/03/04 11:54:23;;;;;;;;;;;;;;;10.73;39.13;99177.63;4500173;31;35239;-82
2022/03/04 11:56:51;;;;;;;;;;;;;;;10.81;37.63;99180.31;4485702;31;33298;-83
2022/03/04 11:59:20;;;;;;;;;;;;;;;11.89;36.19;99164.94;4500164;31;34266;-84
2022/03/04 12:01:47;;;;;;;;;;;;;;;11.18;36.85;99173.84;4486182;31;34264;-82
2022/03/04 12:04:15;;;;;;;;;;;;;;;11.34;37.19;99175.72;4500116;31;34942;-82
2022/03/04 12:06:43;;;;;;;;;;;;;;;10.76;37.92;99181.97;4500293;31;34163;-83
2022/03/04 12:09:29;;;;;;;;;;;;;;;11.71;34.93;99172.59;4485922;31;34779;-82
2022/03/04 12:12:19;;;;;;;;;;;;;;;11.25;36.74;99177.34;4485802;31;35408;-82
2022/03/04 12:14:49;;;;;;;;;;;;;;;10.36;38.76;99184.06;4500049;31;34298;-83
2022/03/04 12:17:17;;;;;;;;;;;;;;;10.05;39.43;99182.72;4486085;31;33031;-82
2022/03/04 12:19:44;;;;;;;;;;;;;;;10.85;38.04;99184.69;4500285;31;33761;-82
2022/03/04 12:22:15;;;;;;;;;;;;;;;10.53;38.63;99182.56;4500125;31;34191;-82
2022/03/04 12:24:56;;;;;;;;;;;;;;;9.57;40.06;99184.53;4500156;31;34464;-82
2022/03/04 12:27:34;;;;;;;;;;;;;;;10.43;38.60;99178.13;4485496;31;33496;-82
2022/03/04 12:30:18;;;;;;;;;;;;;;;10.02;39.46;99193.03;4500275;31;35161;-83
2022/03/04 12:32:46;;;;;;;;;;;;;;;10.81;37.95;99185.50;4500098;31;34059;-84
2022/03/04 12:35:17;;;;;;;;;;;;;;;11.06;37.12;99182.34;4500151;31;33838;-83
2022/03/04 12:37:44;;;;;;;;;;;;;;;10.30;38.73;99183.97;4485905;31;33333;-83
2022/03/04 12:40:17;;;;;;;;;;;;;;;11.44;36.81;99184.47;4486093;31;34963;-84
2022/03/04 12:42:50;;;;;;;;;;;;;;;10.54;38.57;99184.31;4499962;31;34397;-83
2022/03/04 12:45:23;;;;;;;;;;;;;;;10.37;38.91;99186.66;4500226;31;34760;-82
2022/03/04 12:47:53;;;;;;;;;;;;;;;10.26;39.23;99196.00;4500372;31;33282;-87
2022/03/04 12:50:27;;;;;;;;;;;;;;;10.11;40.00;99188.84;4499915;31;33902;-83
2022/03/04 12:52:55;;;;;;;;;;;;;;;11.29;38.01;99186.88;4485590;31;34886;-85
2022/03/04 12:55:22;;;;;;;;;;;;;;;10.09;40.10;99182.78;4499822;31;34206;-83
2022/03/04 12:57:49;;;;;;;;;;;;;;;10.73;38.67;99189.75;4472010;31;871616;-83